createdAt,value
2022-09-12T00:02:47.899Z,100.00
2022-09-12T00:05:42.575Z,100.00
2022-09-12T00:08:31.003Z,100.00
2022-09-12T00:11:19.733Z,100.00
2022-09-12T00:14:10.312Z,100.00
2022-09-12T00:16:59.618Z,100.00
2022-09-12T00:19:47.916Z,100.00
2022-09-12T00:22:38.626Z,100.00
2022-09-12T00:25:27.017Z,100.00
2022-09-12T00:28:17.733Z,100.00
2022-09-12T00:31:08.309Z,100.00
2022-09-12T00:34:00.787Z,100.00
2022-09-12T00:36:49.101Z,100.00
2022-09-12T00:39:39.167Z,100.00
2022-09-12T00:42:27.680Z,100.00
2022-09-12T00:45:24.316Z,98.96
2022-09-12T00:48:22.886Z,98.41
2022-09-12T00:51:11.988Z,100.00
2022-09-12T00:54:04.169Z,100.00
2022-09-12T00:56:57.241Z,100.00
2022-09-12T00:59:50.460Z,100.00
2022-09-12T01:02:39.151Z,100.00
2022-09-12T01:05:29.432Z,100.00
2022-09-12T01:08:18.841Z,100.00
2022-09-12T01:11:08.064Z,100.00
2022-09-12T01:13:57.964Z,100.00
2022-09-12T01:16:47.200Z,100.00
2022-09-12T01:20:10.672Z,100.00
2022-09-12T01:23:13.134Z,100.00
2022-09-12T01:26:22.577Z,100.00
2022-09-12T01:29:33.632Z,100.00
2022-09-12T01:32:32.730Z,100.00
2022-09-12T01:35:27.516Z,100.00
2022-09-12T01:38:25.827Z,100.00
2022-09-12T01:41:25.473Z,100.00
2022-09-12T01:44:24.980Z,100.00
2022-09-12T01:47:19.100Z,100.00
2022-09-12T01:50:15.190Z,100.00
2022-09-12T01:53:08.306Z,100.00
2022-09-12T01:56:01.699Z,100.00
2022-09-12T01:58:54.403Z,100.00
2022-09-12T02:01:55.115Z,100.00
2022-09-12T02:04:52.232Z,100.00
2022-09-12T02:07:46.968Z,100.00
2022-09-12T02:10:43.530Z,100.00
2022-09-12T02:13:37.086Z,100.00
2022-09-12T02:16:32.188Z,100.00
2022-09-12T02:19:24.016Z,99.69
2022-09-12T02:22:17.069Z,100.00
2022-09-12T02:25:10.494Z,100.00
2022-09-12T02:28:06.004Z,100.00
2022-09-12T02:31:02.696Z,100.00
2022-09-12T02:34:05.216Z,99.84
2022-09-12T02:37:02.530Z,100.00
2022-09-12T02:39:51.113Z,99.50
2022-09-12T02:42:41.088Z,100.00
2022-09-12T02:45:29.871Z,100.00
2022-09-12T02:48:23.201Z,100.00
2022-09-12T02:51:12.143Z,100.00
2022-09-12T02:54:00.902Z,100.00
2022-09-12T02:56:49.405Z,100.00
2022-09-12T02:59:39.135Z,100.00
2022-09-12T03:02:36.836Z,100.00
2022-09-12T03:05:30.568Z,100.00
2022-09-12T03:08:39.529Z,100.00
2022-09-12T03:11:51.660Z,100.00
2022-09-12T03:15:11.117Z,100.00
2022-09-12T03:18:09.551Z,100.00
2022-09-12T03:21:03.893Z,100.00
2022-09-12T03:24:03.384Z,100.00
2022-09-12T03:26:57.897Z,100.00
2022-09-12T03:29:49.015Z,100.00
2022-09-12T03:32:46.321Z,100.00
2022-09-12T03:35:34.733Z,100.00
2022-09-12T03:38:23.071Z,100.00
2022-09-12T03:41:11.442Z,100.00
2022-09-12T03:43:59.814Z,100.00
2022-09-12T03:46:48.355Z,100.00
2022-09-12T03:49:38.259Z,100.00
2022-09-12T03:52:26.671Z,100.00
2022-09-12T03:55:15.101Z,100.00
2022-09-12T03:58:03.393Z,100.00
2022-09-12T04:00:51.940Z,100.00
2022-09-12T04:03:41.292Z,100.00
2022-09-12T04:06:31.318Z,100.00
2022-09-12T04:09:20.514Z,100.00
2022-09-12T04:12:09.191Z,100.00
2022-09-12T04:14:57.535Z,100.00
2022-09-12T04:17:45.909Z,100.00
2022-09-12T04:20:34.209Z,100.00
2022-09-12T04:23:24.303Z,100.00
2022-09-12T04:26:13.877Z,100.00
2022-09-12T04:29:03.967Z,100.00
2022-09-12T04:31:52.556Z,100.00
2022-09-12T04:34:40.858Z,100.00
2022-09-12T04:37:29.204Z,100.00
2022-09-12T04:40:19.101Z,100.00
2022-09-12T04:43:11.178Z,100.00
2022-09-12T04:46:06.411Z,100.00
2022-09-12T04:48:57.037Z,100.00
2022-09-12T04:51:46.220Z,100.00
2022-09-12T04:54:34.552Z,100.00
2022-09-12T04:57:24.228Z,100.00
2022-09-12T05:00:15.022Z,100.00
2022-09-12T05:03:03.410Z,100.00
2022-09-12T05:05:56.266Z,100.00
2022-09-12T05:08:45.074Z,100.00
2022-09-12T05:12:03.633Z,100.00
2022-09-12T05:14:53.768Z,100.00
2022-09-12T05:17:51.277Z,100.00
2022-09-12T05:20:39.826Z,100.00
2022-09-12T05:23:28.824Z,100.00
2022-09-12T05:26:19.146Z,100.00
2022-09-12T05:29:13.374Z,100.00
2022-09-12T05:32:03.665Z,100.00
2022-09-12T05:34:58.263Z,100.00
2022-09-12T05:37:46.657Z,100.00
2022-09-12T05:40:41.203Z,99.92
2022-09-12T05:43:29.469Z,99.51
2022-09-12T05:46:26.414Z,98.16
2022-09-12T05:49:16.258Z,99.10
2022-09-12T05:52:10.750Z,99.74
2022-09-12T05:54:59.125Z,99.58
2022-09-12T05:57:54.151Z,97.53
2022-09-12T06:00:42.559Z,95.32
2022-09-12T06:03:40.883Z,93.68
2022-09-12T06:06:32.500Z,94.85
2022-09-12T06:09:20.921Z,94.40
2022-09-12T06:12:09.779Z,92.29
2022-09-12T06:14:58.261Z,92.86
2022-09-12T06:17:51.199Z,93.34
2022-09-12T06:20:39.821Z,91.76
2022-09-12T06:23:30.313Z,93.85
2022-09-12T06:26:21.771Z,92.86
2022-09-12T06:29:13.395Z,92.10
2022-09-12T06:32:01.904Z,92.48
2022-09-12T06:34:50.979Z,89.45
2022-09-12T06:37:39.228Z,91.01
2022-09-12T06:40:29.879Z,90.85
2022-09-12T06:43:18.254Z,89.89
2022-09-12T06:46:07.711Z,89.08
2022-09-12T06:48:57.216Z,90.48
2022-09-12T06:51:45.849Z,90.26
2022-09-12T06:54:34.195Z,91.22
2022-09-12T06:57:31.566Z,91.16
2022-09-12T07:00:20.181Z,87.23
2022-09-12T07:03:08.663Z,87.25
2022-09-12T07:06:07.558Z,87.58
2022-09-12T07:08:55.830Z,85.13
2022-09-12T07:11:44.935Z,85.85
2022-09-12T07:14:40.439Z,85.66
2022-09-12T07:17:28.734Z,82.66
2022-09-12T07:20:23.303Z,83.57
2022-09-12T07:23:11.797Z,81.09
2022-09-12T07:26:11.629Z,79.17
2022-09-12T07:29:19.117Z,79.89
2022-09-12T07:32:10.232Z,85.62
2022-09-12T07:35:05.161Z,83.66
2022-09-12T07:37:53.587Z,80.41
2022-09-12T07:40:48.544Z,80.31
2022-09-12T07:43:36.854Z,80.27
2022-09-12T07:46:26.689Z,81.47
2022-09-12T07:49:16.478Z,80.04
2022-09-12T07:52:04.993Z,78.50
2022-09-12T07:54:53.442Z,75.23
2022-09-12T07:57:41.962Z,74.81
2022-09-12T08:00:39.026Z,76.66
2022-09-12T08:03:27.383Z,77.20
2022-09-12T08:06:28.162Z,77.44
2022-09-12T08:09:17.588Z,78.31
2022-09-12T08:12:15.151Z,76.54
2022-09-12T08:15:03.806Z,75.43
2022-09-12T08:18:01.807Z,72.68
2022-09-12T08:20:50.146Z,75.18
2022-09-12T08:23:39.891Z,76.73
2022-09-12T08:26:37.295Z,76.59
2022-09-12T08:29:26.013Z,74.74
2022-09-12T08:32:23.363Z,76.49
2022-09-12T08:35:12.009Z,74.28
2022-09-12T08:38:09.379Z,73.07
2022-09-12T08:41:08.294Z,72.38
2022-09-12T08:44:09.372Z,72.94
2022-09-12T08:47:17.771Z,71.71
2022-09-12T08:50:15.386Z,73.06
2022-09-12T08:53:05.649Z,74.35
2022-09-12T08:56:08.684Z,73.57
2022-09-12T08:58:57.006Z,72.23
2022-09-12T09:02:01.007Z,72.05
2022-09-12T09:04:52.865Z,71.23
2022-09-12T09:08:08.955Z,67.53
2022-09-12T09:11:04.583Z,67.89
2022-09-12T09:14:26.600Z,69.58
2022-09-12T09:17:24.100Z,70.09
2022-09-12T09:20:22.448Z,68.67
2022-09-12T09:23:17.534Z,66.97
2022-09-12T09:26:09.613Z,67.54
2022-09-12T09:29:03.974Z,66.99
2022-09-12T09:31:56.010Z,64.67
2022-09-12T09:34:44.597Z,65.73
2022-09-12T09:37:45.332Z,66.76
2022-09-12T09:40:46.384Z,68.25
2022-09-12T09:43:34.998Z,66.08
2022-09-12T09:46:25.145Z,65.64
2022-09-12T09:49:23.944Z,65.70
2022-09-12T09:52:15.612Z,67.95
2022-09-12T09:55:05.242Z,65.18
2022-09-12T09:57:59.602Z,64.39
2022-09-12T10:00:48.004Z,61.11
2022-09-12T10:03:51.775Z,64.47
2022-09-12T10:06:40.951Z,65.73
2022-09-12T10:09:38.245Z,63.75
2022-09-12T10:12:29.334Z,64.64
2022-09-12T10:15:27.770Z,62.77
2022-09-12T10:18:34.842Z,63.24
2022-09-12T10:21:30.991Z,62.08
2022-09-12T10:24:24.334Z,62.54
2022-09-12T10:27:20.334Z,64.27
2022-09-12T10:30:18.984Z,66.23
2022-09-12T10:33:12.817Z,64.87
2022-09-12T10:36:01.803Z,61.11
2022-09-12T10:38:54.168Z,61.50
2022-09-12T10:41:42.934Z,62.65
2022-09-12T10:44:40.071Z,61.54
2022-09-12T10:47:32.788Z,59.44
2022-09-12T10:50:27.307Z,62.64
2022-09-12T10:53:20.399Z,62.24
2022-09-12T10:56:13.660Z,61.41
2022-09-12T10:59:24.323Z,59.68
2022-09-12T11:02:21.526Z,58.00
2022-09-12T11:05:20.669Z,60.50
2022-09-12T11:08:29.839Z,58.28
2022-09-12T11:11:38.359Z,57.22
2022-09-12T11:14:41.285Z,58.04
2022-09-12T11:17:42.285Z,59.94
2022-09-12T11:20:44.776Z,58.90
2022-09-12T11:24:15.081Z,60.84
2022-09-12T11:27:21.123Z,58.33
2022-09-12T11:30:13.110Z,57.66
2022-09-12T11:33:29.687Z,58.43
2022-09-12T11:36:33.625Z,58.20
2022-09-12T11:39:25.234Z,58.54
2022-09-12T11:42:20.779Z,55.59
2022-09-12T11:45:16.520Z,55.73
2022-09-12T11:48:12.916Z,55.89
2022-09-12T11:51:04.648Z,58.18
2022-09-12T11:54:05.889Z,54.89
2022-09-12T11:57:03.655Z,53.90
2022-09-12T11:59:59.255Z,54.91
2022-09-12T12:03:00.008Z,53.70
2022-09-12T12:05:53.636Z,52.79
2022-09-12T12:08:44.325Z,52.62
2022-09-12T12:11:36.870Z,52.33
2022-09-12T12:14:28.981Z,49.97
2022-09-12T12:17:21.039Z,50.63
2022-09-12T12:20:17.911Z,49.80
2022-09-12T12:23:06.300Z,49.80
2022-09-12T12:26:05.462Z,50.17
2022-09-12T12:29:00.411Z,46.52
2022-09-12T12:32:24.044Z,47.38
2022-09-12T12:35:40.908Z,49.56
2022-09-12T12:38:31.585Z,47.64
2022-09-12T12:41:45.785Z,48.76
2022-09-12T12:44:51.507Z,50.87
2022-09-12T12:47:46.892Z,52.62
2022-09-12T12:50:35.634Z,49.73
2022-09-12T12:53:30.274Z,50.49
2022-09-12T12:56:40.636Z,48.15
2022-09-12T12:59:29.700Z,47.20
2022-09-12T13:02:32.478Z,47.69
2022-09-12T13:05:24.659Z,47.25
2022-09-12T13:08:31.245Z,47.63
2022-09-12T13:11:31.723Z,48.66
2022-09-12T13:14:37.127Z,49.33
2022-09-12T13:17:35.833Z,50.33
2022-09-12T13:20:30.260Z,50.45
2022-09-12T13:23:23.627Z,49.60
2022-09-12T13:26:14.410Z,50.65
2022-09-12T13:29:16.255Z,48.59
2022-09-12T13:32:05.173Z,48.78
2022-09-12T13:35:07.952Z,49.35
2022-09-12T13:38:05.715Z,49.27
2022-09-12T13:41:11.998Z,50.92
2022-09-12T13:44:01.917Z,49.91
2022-09-12T13:47:00.079Z,50.29
2022-09-12T13:49:49.822Z,49.88
2022-09-12T13:52:49.488Z,50.53
2022-09-12T13:55:42.492Z,49.62
2022-09-12T13:58:33.301Z,50.18
2022-09-12T14:01:22.642Z,48.92
2022-09-12T14:04:36.897Z,48.66
2022-09-12T14:07:27.476Z,49.66
2022-09-12T14:10:20.105Z,47.54
2022-09-12T14:13:16.970Z,49.64
2022-09-12T14:16:09.974Z,49.14
2022-09-12T14:18:59.913Z,48.74
2022-09-12T14:21:50.095Z,49.51
2022-09-12T14:24:39.260Z,49.92
2022-09-12T14:27:45.838Z,48.65
2022-09-12T14:30:37.584Z,50.78
2022-09-12T14:33:26.012Z,51.43
2022-09-12T14:36:22.196Z,52.73
2022-09-12T14:39:21.912Z,51.91
2022-09-12T14:42:15.123Z,49.89
2022-09-12T14:45:06.811Z,50.65
2022-09-12T14:47:58.289Z,52.65
2022-09-12T14:50:50.565Z,52.94
2022-09-12T14:53:39.475Z,52.29
2022-09-12T14:56:41.387Z,52.92
2022-09-12T14:59:37.500Z,53.25
2022-09-12T15:02:28.955Z,52.81
2022-09-12T15:05:28.911Z,52.73
2022-09-12T15:08:17.417Z,53.49
2022-09-12T15:11:11.643Z,52.27
2022-09-12T15:14:00.017Z,53.24
2022-09-12T15:16:54.632Z,53.05
2022-09-12T15:19:42.946Z,52.65
2022-09-12T15:22:34.439Z,52.72
2022-09-12T15:25:22.786Z,53.41
2022-09-12T15:28:17.925Z,53.16
2022-09-12T15:31:11.672Z,50.81
2022-09-12T15:34:03.365Z,50.68
2022-09-12T15:36:51.830Z,51.38
2022-09-12T15:39:48.033Z,50.74
2022-09-12T15:42:36.522Z,51.88
2022-09-12T15:45:28.331Z,52.96
2022-09-12T15:48:16.713Z,50.97
2022-09-12T15:51:05.340Z,52.02
2022-09-12T15:53:53.755Z,52.65
2022-09-12T15:56:44.099Z,51.53
2022-09-12T15:59:41.513Z,51.45
2022-09-12T16:02:29.943Z,52.74
2022-09-12T16:05:27.837Z,52.25
2022-09-12T16:08:16.210Z,51.73
2022-09-12T16:11:19.983Z,52.11
2022-09-12T16:14:09.901Z,53.97
2022-09-12T16:16:58.464Z,55.31
2022-09-12T16:19:46.855Z,54.82
2022-09-12T16:22:35.382Z,55.68
2022-09-12T16:25:23.716Z,55.81
2022-09-12T16:28:12.333Z,56.55
2022-09-12T16:31:03.565Z,56.23
2022-09-12T16:34:01.167Z,56.96
2022-09-12T16:36:49.543Z,56.88
2022-09-12T16:39:49.000Z,57.29
2022-09-12T16:42:39.682Z,58.23
2022-09-12T16:45:31.484Z,57.58
2022-09-12T16:48:21.357Z,59.22
2022-09-12T16:51:09.865Z,60.15
2022-09-12T16:53:58.329Z,59.39
2022-09-12T16:56:46.749Z,58.63
2022-09-12T16:59:35.076Z,58.67
2022-09-12T17:02:23.463Z,59.13
2022-09-12T17:05:13.196Z,59.79
2022-09-12T17:08:01.615Z,59.95
2022-09-12T17:10:49.922Z,60.19
2022-09-12T17:14:06.170Z,60.10
2022-09-12T17:16:54.966Z,60.30
2022-09-12T17:19:52.926Z,60.99
2022-09-12T17:22:42.845Z,61.08
2022-09-12T17:25:32.620Z,61.07
2022-09-12T17:28:21.663Z,60.84
2022-09-12T17:31:13.826Z,60.79
2022-09-12T17:34:03.312Z,60.81
2022-09-12T17:36:57.709Z,60.34
2022-09-12T17:39:47.692Z,61.26
2022-09-12T17:42:42.768Z,62.00
2022-09-12T17:45:31.830Z,61.67
2022-09-12T17:48:26.380Z,62.87
2022-09-12T17:51:16.434Z,62.82
2022-09-12T17:54:12.932Z,62.88
2022-09-12T17:57:05.026Z,62.50
2022-09-12T17:59:53.915Z,62.65
2022-09-12T18:02:42.338Z,62.83
2022-09-12T18:05:31.160Z,63.25
2022-09-12T18:08:20.322Z,63.87
2022-09-12T18:11:15.099Z,63.62
2022-09-12T18:14:05.275Z,64.19
2022-09-12T18:17:00.478Z,62.67
2022-09-12T18:19:53.391Z,62.51
2022-09-12T18:22:42.083Z,62.63
2022-09-12T18:25:30.881Z,63.38
2022-09-12T18:28:20.202Z,62.96
2022-09-12T18:31:18.077Z,62.80
2022-09-12T18:34:12.653Z,62.50
2022-09-12T18:39:31.467Z,60.58
2022-09-12T18:42:19.774Z,60.06
2022-09-12T18:45:17.537Z,59.90
2022-09-12T18:48:06.302Z,60.22
2022-09-12T18:51:06.489Z,60.97
2022-09-12T18:53:57.157Z,60.97
2022-09-12T18:56:48.304Z,62.58
2022-09-12T18:59:36.784Z,62.67
2022-09-12T19:02:34.916Z,62.09
2022-09-12T19:05:23.632Z,62.27
2022-09-12T19:08:12.099Z,63.86
2022-09-12T19:11:00.841Z,66.53
2022-09-12T19:14:00.077Z,67.85
2022-09-12T19:16:48.564Z,68.65
2022-09-12T19:19:46.105Z,68.71
2022-09-12T19:22:34.749Z,68.36
2022-09-12T19:25:23.343Z,70.38
2022-09-12T19:28:11.725Z,72.48
2022-09-12T19:31:01.705Z,73.28
2022-09-12T19:33:50.818Z,73.31
2022-09-12T19:36:48.162Z,74.21
2022-09-12T19:39:36.617Z,75.94
2022-09-12T19:42:24.990Z,76.04
2022-09-12T19:45:13.398Z,75.47
2022-09-12T19:48:03.673Z,75.83
2022-09-12T19:50:52.081Z,76.43
2022-09-12T19:53:41.042Z,76.69
2022-09-12T19:56:35.449Z,77.18
2022-09-12T19:59:23.913Z,77.34
2022-09-12T20:02:18.456Z,75.91
2022-09-12T20:05:09.273Z,75.57
2022-09-12T20:07:57.826Z,77.51
2022-09-12T20:10:57.279Z,78.02
2022-09-12T20:13:46.438Z,77.39
2022-09-12T20:16:45.599Z,78.00
2022-09-12T20:19:34.348Z,77.48
2022-09-12T20:22:37.958Z,75.70
2022-09-12T20:25:28.219Z,77.41
2022-09-12T20:28:25.546Z,79.20
2022-09-12T20:31:15.921Z,79.21
2022-09-12T20:34:05.122Z,79.60
2022-09-12T20:36:59.608Z,78.86
2022-09-12T20:39:50.994Z,78.30
2022-09-12T20:42:39.773Z,78.19
2022-09-12T20:45:41.594Z,78.50
2022-09-12T20:48:32.126Z,77.86
2022-09-12T20:51:21.058Z,75.30
2022-09-12T20:54:15.367Z,76.08
2022-09-12T20:57:05.314Z,76.01
2022-09-12T20:59:59.996Z,75.24
2022-09-12T21:02:50.803Z,74.53
2022-09-12T21:05:39.342Z,74.83
2022-09-12T21:08:37.793Z,74.42
2022-09-12T21:11:26.352Z,74.70
2022-09-12T21:14:25.236Z,74.93
2022-09-12T21:17:13.656Z,76.47
2022-09-12T21:20:02.393Z,75.48
2022-09-12T21:22:50.769Z,78.28
2022-09-12T21:25:39.179Z,79.17
2022-09-12T21:28:27.788Z,79.76
2022-09-12T21:31:20.350Z,83.44
2022-09-12T21:34:08.797Z,84.40
2022-09-12T21:37:06.082Z,85.28
2022-09-12T21:39:54.460Z,86.76
2022-09-12T21:42:43.321Z,86.96
2022-09-12T21:45:31.779Z,85.66
2022-09-12T21:48:31.361Z,87.54
2022-09-12T21:51:19.886Z,89.10
2022-09-12T21:54:17.025Z,91.52
2022-09-12T21:57:05.512Z,92.30
2022-09-12T22:00:03.379Z,93.03
2022-09-12T22:02:56.578Z,93.88
2022-09-12T22:05:58.155Z,94.01
2022-09-12T22:08:46.569Z,93.46
2022-09-12T22:11:43.998Z,93.96
2022-09-12T22:14:32.399Z,92.94
2022-09-12T22:17:29.956Z,93.74
2022-09-12T22:20:18.607Z,92.74
2022-09-12T22:23:34.815Z,91.41
2022-09-12T22:26:23.172Z,92.44
2022-09-12T22:29:13.346Z,93.12
2022-09-12T22:32:02.263Z,91.48
2022-09-12T22:34:50.521Z,91.87
2022-09-12T22:37:38.920Z,92.73
2022-09-12T22:40:28.763Z,93.07
2022-09-12T22:43:17.245Z,92.03
2022-09-12T22:46:07.945Z,94.28
2022-09-12T22:48:56.771Z,94.22
2022-09-12T22:51:51.450Z,95.55
2022-09-12T22:54:39.810Z,95.20
2022-09-12T22:57:29.545Z,95.87
2022-09-12T23:00:28.118Z,96.07
2022-09-12T23:03:16.582Z,96.33
2022-09-12T23:06:13.823Z,96.55
2022-09-12T23:09:02.153Z,99.14
2022-09-12T23:11:59.591Z,98.60
2022-09-12T23:14:49.250Z,97.17
2022-09-12T23:17:46.522Z,96.36
2022-09-12T23:20:34.871Z,97.11
2022-09-12T23:23:32.817Z,98.35
2022-09-12T23:26:22.600Z,99.96
2022-09-12T23:29:19.971Z,98.93
2022-09-12T23:32:09.831Z,99.17
2022-09-12T23:35:07.394Z,97.85
2022-09-12T23:37:55.795Z,98.03
2022-09-12T23:40:53.241Z,98.15
2022-09-12T23:43:43.116Z,99.24
2022-09-12T23:46:31.421Z,100.00
2022-09-12T23:49:21.152Z,100.00
2022-09-12T23:52:09.541Z,100.00
2022-09-12T23:55:04.048Z,100.00
2022-09-12T23:57:52.433Z,100.00
